Time;durP1;ratioP1;P1;durP2;ratioP2;P2;SDS_P1;SDS_P2;PMS_P1;PMS_P2;Temp;Humidity;BMP_temperature;BMP_pressure;BME280_temperature;BME280_humidity;BME280_pressure;Samples;Min_cycle;Max_cycle;Signal;HPM_P1;HPM_P2
2024/01/23 00:00:37;;;;;;;2.63;0.70;;;;;;;;;;4992070;28;20054;-79
2024/01/23 00:03:04;;;;;;;1.52;0.88;;;;;;;;;;4989717;28;20108;-79
2024/01/23 00:05:31;;;;;;;1.20;0.55;;;;;;;;;;4958281;28;20054;-79
2024/01/23 00:07:58;;;;;;;2.25;0.80;;;;;;;;;;4993531;28;20109;-80
2024/01/23 00:10:25;;;;;;;4.95;0.70;;;;;;;;;;4977370;28;20062;-79
2024/01/23 00:12:51;;;;;;;2.90;0.68;;;;;;;;;;4961265;28;20199;-79
2024/01/23 00:15:18;;;;;;;2.10;0.50;;;;;;;;;;4976936;28;20461;-79
2024/01/23 00:17:45;;;;;;;1.80;0.57;;;;;;;;;;4992516;28;20057;-81
2024/01/23 00:20:12;;;;;;;1.90;0.65;;;;;;;;;;4958888;28;20137;-79
2024/01/23 00:22:39;;;;;;;3.95;0.68;;;;;;;;;;4988107;28;20128;-79
2024/01/23 00:25:06;;;;;;;2.10;0.70;;;;;;;;;;4958445;28;20415;-78
2024/01/23 00:27:33;;;;;;;1.55;0.93;;;;;;;;;;4978622;28;20049;-79
2024/01/23 00:30:00;;;;;;;2.83;0.80;;;;;;;;;;4978052;28;20054;-79
2024/01/23 00:32:30;;;;;;;1.63;0.50;;;;;;;;;;4961828;28;20072;-79
2024/01/23 00:34:58;;;;;;;3.20;0.70;;;;;;;;;;4961754;28;20051;-82
2024/01/23 00:37:25;;;;;;;1.52;0.95;;;;;;;;;;4961953;28;20117;-80
2024/01/23 00:39:54;;;;;;;3.15;1.20;;;;;;;;;;4976283;28;20054;-80
2024/01/23 00:42:21;;;;;;;3.65;0.80;;;;;;;;;;4987486;28;20089;-79
2024/01/23 00:44:48;;;;;;;3.53;0.82;;;;;;;;;;4962426;28;20509;-80
2024/01/23 00:47:15;;;;;;;2.15;0.65;;;;;;;;;;4977520;28;20061;-79
2024/01/23 00:49:42;;;;;;;4.07;0.57;;;;;;;;;;4993942;28;20445;-79
2024/01/23 00:52:09;;;;;;;2.70;0.85;;;;;;;;;;4967256;28;20157;-79
2024/01/23 00:54:35;;;;;;;5.03;0.82;;;;;;;;;;4993302;28;20070;-80
2024/01/23 00:57:05;;;;;;;3.15;0.73;;;;;;;;;;4993717;28;20422;-79
2024/01/23 00:59:32;;;;;;;4.30;0.90;;;;;;;;;;4956283;28;20458;-78
2024/01/23 01:01:59;;;;;;;3.88;0.93;;;;;;;;;;4961266;28;20054;-79
2024/01/23 01:04:26;;;;;;;3.58;0.75;;;;;;;;;;4978300;28;20062;-79
2024/01/23 01:06:53;;;;;;;3.20;0.50;;;;;;;;;;4975497;28;20046;-79
2024/01/23 01:09:20;;;;;;;2.08;0.85;;;;;;;;;;4978077;28;20145;-79
2024/01/23 01:11:47;;;;;;;2.97;0.73;;;;;;;;;;4993342;28;20050;-82
2024/01/23 01:14:14;;;;;;;0.85;0.40;;;;;;;;;;4976566;28;20054;-82
2024/01/23 01:16:41;;;;;;;1.65;0.60;;;;;;;;;;4978114;28;20078;-82
2024/01/23 01:19:07;;;;;;;2.90;0.75;;;;;;;;;;4977969;28;20042;-81
2024/01/23 01:21:34;;;;;;;2.58;0.65;;;;;;;;;;4978342;28;20066;-81
2024/01/23 01:24:01;;;;;;;4.90;0.82;;;;;;;;;;4978906;28;20058;-81
2024/01/23 01:26:28;;;;;;;4.95;0.80;;;;;;;;;;4978043;28;20674;-80
2024/01/23 01:28:55;;;;;;;2.97;0.63;;;;;;;;;;4978228;28;20109;-80
2024/01/23 01:31:21;;;;;;;7.60;0.80;;;;;;;;;;4994058;28;20565;-81
2024/01/23 01:33:48;;;;;;;4.57;0.60;;;;;;;;;;4978655;28;20060;-80
2024/01/23 01:36:15;;;;;;;3.35;0.80;;;;;;;;;;4962219;28;20092;-80
2024/01/23 01:38:42;;;;;;;2.42;0.50;;;;;;;;;;4995035;28;20498;-80
2024/01/23 01:41:14;;;;;;;5.53;0.75;;;;;;;;;;4992270;28;20511;-80
2024/01/23 01:43:42;;;;;;;5.85;0.70;;;;;;;;;;4962654;28;20470;-81
2024/01/23 01:46:23;;;;;;;3.42;0.60;;;;;;;;;;4994777;28;20138;-81
2024/01/23 01:48:50;;;;;;;2.35;0.30;;;;;;;;;;4973769;28;20125;-82
2024/01/23 01:51:25;;;;;;;4.85;0.88;;;;;;;;;;4962255;28;20054;-81
2024/01/23 01:53:52;;;;;;;3.38;0.93;;;;;;;;;;4964510;28;20106;-82
2024/01/23 01:56:20;;;;;;;2.80;0.98;;;;;;;;;;4971640;28;20113;-81
2024/01/23 01:58:47;;;;;;;2.85;0.50;;;;;;;;;;4959069;28;20062;-81
2024/01/23 02:01:14;;;;;;;4.53;1.15;;;;;;;;;;4962160;28;20073;-82
2024/01/23 02:03:41;;;;;;;4.82;0.85;;;;;;;;;;4962063;28;20054;-79
2024/01/23 02:06:08;;;;;;;4.35;0.50;;;;;;;;;;4968936;28;20054;-80
2024/01/23 02:08:36;;;;;;;6.07;0.63;;;;;;;;;;4977122;28;20060;-80
2024/01/23 02:11:04;;;;;;;2.58;0.60;;;;;;;;;;4976277;28;20465;-79
2024/01/23 02:13:30;;;;;;;3.55;0.52;;;;;;;;;;4959935;28;20112;-80
2024/01/23 02:15:57;;;;;;;7.32;1.15;;;;;;;;;;4975876;28;20477;-79
2024/01/23 02:18:24;;;;;;;3.40;0.65;;;;;;;;;;4959383;28;20055;-80
2024/01/23 02:20:51;;;;;;;3.85;1.33;;;;;;;;;;4983186;28;20058;-80
2024/01/23 02:23:18;;;;;;;6.32;0.70;;;;;;;;;;4958420;28;20142;-80
2024/01/23 02:25:45;;;;;;;4.75;0.80;;;;;;;;;;4971342;28;20059;-81
2024/01/23 02:28:12;;;;;;;5.10;0.80;;;;;;;;;;4965939;28;20398;-80
2024/01/23 02:30:39;;;;;;;7.15;1.00;;;;;;;;;;4970647;28;20469;-81
2024/01/23 02:33:06;;;;;;;6.68;0.82;;;;;;;;;;4991067;28;20134;-80
2024/01/23 02:35:33;;;;;;;5.72;0.98;;;;;;;;;;4998730;28;20054;-80
2024/01/23 02:38:00;;;;;;;6.05;0.98;;;;;;;;;;4966267;28;20046;-80
2024/01/23 02:40:27;;;;;;;10.85;1.48;;;;;;;;;;4997308;28;20062;-80
2024/01/23 02:42:54;;;;;;;5.32;1.02;;;;;;;;;;4973640;28;20423;-80
2024/01/23 02:45:21;;;;;;;5.85;0.90;;;;;;;;;;4985121;28;20058;-80
2024/01/23 02:47:48;;;;;;;4.95;1.05;;;;;;;;;;4966922;28;20066;-80
2024/01/23 02:50:15;;;;;;;5.70;1.63;;;;;;;;;;4996792;28;20068;-80
2024/01/23 02:52:42;;;;;;;9.10;1.30;;;;;;;;;;4997241;28;20058;-82
2024/01/23 02:55:09;;;;;;;5.32;1.38;;;;;;;;;;4996982;28;20105;-80
2024/01/23 02:57:35;;;;;;;5.55;1.25;;;;;;;;;;4999609;28;20046;-80
2024/01/23 03:00:03;;;;;;;6.38;0.75;;;;;;;;;;4999513;28;20090;-82
2024/01/23 03:02:30;;;;;;;6.03;1.23;;;;;;;;;;4965308;28;20050;-82
2024/01/23 03:04:57;;;;;;;11.93;1.73;;;;;;;;;;4993156;28;20106;-82
2024/01/23 03:07:24;;;;;;;6.10;1.00;;;;;;;;;;4996065;28;20050;-82
2024/01/23 03:09:52;;;;;;;7.32;1.38;;;;;;;;;;4980364;28;20581;-82
2024/01/23 03:12:21;;;;;;;7.35;1.40;;;;;;;;;;4996740;28;20056;-81
2024/01/23 03:14:49;;;;;;;8.63;1.25;;;;;;;;;;4962266;28;20070;-82
2024/01/23 03:17:16;;;;;;;9.10;1.55;;;;;;;;;;4982426;28;20054;-82
2024/01/23 03:19:43;;;;;;;9.50;1.55;;;;;;;;;;4982529;28;20066;-82
2024/01/23 03:22:10;;;;;;;8.70;1.55;;;;;;;;;;4983644;28;20069;-82
2024/01/23 03:24:40;;;;;;;7.90;1.50;;;;;;;;;;4981873;28;20057;-82
2024/01/23 03:27:08;;;;;;;7.53;1.25;;;;;;;;;;4982482;28;20084;-81
2024/01/23 03:29:39;;;;;;;13.00;1.95;;;;;;;;;;4964463;28;20139;-81
2024/01/23 03:32:06;;;;;;;7.72;1.25;;;;;;;;;;4983719;28;20061;-81
2024/01/23 03:34:33;;;;;;;8.70;1.70;;;;;;;;;;4969217;28;20058;-81
2024/01/23 03:37:03;;;;;;;8.73;1.70;;;;;;;;;;4982916;28;20053;-82
2024/01/23 03:39:30;;;;;;;6.93;1.45;;;;;;;;;;4973697;28;20105;-82
2024/01/23 03:41:57;;;;;;;12.07;1.70;;;;;;;;;;4986462;28;20058;-82
2024/01/23 03:44:27;;;;;;;11.20;1.40;;;;;;;;;;4986090;28;20054;-82
2024/01/23 03:46:54;;;;;;;10.75;1.27;;;;;;;;;;4999376;28;20070;-80
2024/01/23 03:49:22;;;;;;;7.70;1.65;;;;;;;;;;5000752;28;20659;-79
2024/01/23 03:51:49;;;;;;;6.03;1.50;;;;;;;;;;4969030;28;20081;-80
2024/01/23 03:54:16;;;;;;;12.50;1.58;;;;;;;;;;4984485;28;20058;-80
2024/01/23 03:56:43;;;;;;;9.27;1.63;;;;;;;;;;4965455;28;20050;-79
2024/01/23 03:59:10;;;;;;;7.88;1.75;;;;;;;;;;4999864;28;20084;-80
2024/01/23 04:01:37;;;;;;;5.60;1.10;;;;;;;;;;4983894;28;20097;-80
2024/01/23 04:04:04;;;;;;;12.00;2.05;;;;;;;;;;4984475;28;20062;-80
2024/01/23 04:06:31;;;;;;;7.05;1.38;;;;;;;;;;4981978;28;20277;-79
2024/01/23 04:08:59;;;;;;;11.30;2.00;;;;;;;;;;5016502;28;20521;-80
2024/01/23 04:11:25;;;;;;;5.93;1.13;;;;;;;;;;4968113;28;20062;-80
2024/01/23 04:13:52;;;;;;;10.70;1.13;;;;;;;;;;4985141;28;20062;-80
2024/01/23 04:16:19;;;;;;;13.13;1.40;;;;;;;;;;4983839;28;20058;-80
2024/01/23 04:18:46;;;;;;;8.15;1.70;;;;;;;;;;4967796;28;20054;-79
2024/01/23 04:21:16;;;;;;;11.40;3.08;;;;;;;;;;4999975;28;20061;-79
2024/01/23 04:23:43;;;;;;;7.05;1.42;;;;;;;;;;4980464;28;20165;-79
2024/01/23 04:26:10;;;;;;;8.55;1.67;;;;;;;;;;5000522;28;20050;-79
2024/01/23 04:28:37;;;;;;;7.47;1.20;;;;;;;;;;4980536;28;20070;-79
2024/01/23 04:31:04;;;;;;;7.20;1.45;;;;;;;;;;4999472;28;20077;-80
2024/01/23 04:33:31;;;;;;;9.38;1.95;;;;;;;;;;4983636;28;20054;-79
2024/01/23 04:35:58;;;;;;;9.32;1.60;;;;;;;;;;5000402;28;20105;-79
2024/01/23 04:38:25;;;;;;;8.23;1.58;;;;;;;;;;4983368;28;20078;-79
2024/01/23 04:40:51;;;;;;;11.38;1.70;;;;;;;;;;4998586;28;20085;-79
2024/01/23 04:43:18;;;;;;;15.10;2.30;;;;;;;;;;4984546;28;20054;-79
2024/01/23 04:45:45;;;;;;;9.23;1.38;;;;;;;;;;4998633;28;20057;-80
2024/01/23 04:48:12;;;;;;;8.20;1.98;;;;;;;;;;4982283;28;20505;-80
2024/01/23 04:50:40;;;;;;;10.93;1.38;;;;;;;;;;4981762;28;20550;-79
2024/01/23 04:53:06;;;;;;;7.72;2.05;;;;;;;;;;4965609;28;20506;-78
2024/01/23 04:55:33;;;;;;;5.10;1.45;;;;;;;;;;4997248;28;20050;-78
2024/01/23 04:58:00;;;;;;;6.78;1.23;;;;;;;;;;4980517;28;20047;-79
2024/01/23 05:00:27;;;;;;;8.75;2.72;;;;;;;;;;4977228;28;20055;-78
2024/01/23 05:02:53;;;;;;;10.80;2.03;;;;;;;;;;4979478;28;20101;-79
2024/01/23 05:05:21;;;;;;;15.40;1.60;;;;;;;;;;4963312;28;20070;-79
2024/01/23 05:07:47;;;;;;;6.78;1.90;;;;;;;;;;4978914;28;20085;-79
2024/01/23 05:10:15;;;;;;;6.35;1.20;;;;;;;;;;4977841;28;20078;-79
2024/01/23 05:12:41;;;;;;;11.05;1.40;;;;;;;;;;4977493;28;20345;-78
2024/01/23 05:15:09;;;;;;;13.52;2.05;;;;;;;;;;4994082;28;20050;-78
2024/01/23 05:17:36;;;;;;;8.40;1.92;;;;;;;;;;4962806;28;20112;-79
2024/01/23 05:20:07;;;;;;;6.72;1.98;;;;;;;;;;4970496;28;20059;-79
2024/01/23 05:22:34;;;;;;;8.48;1.20;;;;;;;;;;4975353;28;20104;-79
2024/01/23 05:25:02;;;;;;;7.35;1.20;;;;;;;;;;4978938;28;20121;-79
2024/01/23 05:27:29;;;;;;;7.45;1.25;;;;;;;;;;4978877;28;20486;-81
2024/01/23 05:29:56;;;;;;;6.68;1.05;;;;;;;;;;4973771;28;20062;-78
2024/01/23 05:32:23;;;;;;;6.15;1.30;;;;;;;;;;4986081;28;20533;-77
2024/01/23 05:34:50;;;;;;;6.60;1.20;;;;;;;;;;4979631;28;20061;-75
2024/01/23 05:37:17;;;;;;;5.80;1.23;;;;;;;;;;4988629;28;20083;-75
2024/01/23 05:39:44;;;;;;;5.65;1.27;;;;;;;;;;4982386;28;20089;-80
2024/01/23 05:42:14;;;;;;;6.07;1.13;;;;;;;;;;4964698;28;20051;-79
2024/01/23 05:44:41;;;;;;;8.73;1.10;;;;;;;;;;4970776;28;20062;-79
2024/01/23 05:47:11;;;;;;;7.20;1.17;;;;;;;;;;4984064;28;20050;-78
2024/01/23 05:49:38;;;;;;;7.95;1.27;;;;;;;;;;5003586;28;20054;-78
2024/01/23 05:52:05;;;;;;;4.50;0.93;;;;;;;;;;4992298;28;20086;-78
2024/01/23 05:54:31;;;;;;;6.07;0.70;;;;;;;;;;4968580;28;20061;-78
2024/01/23 05:56:59;;;;;;;5.90;1.17;;;;;;;;;;4977840;28;20062;-78
2024/01/23 05:59:26;;;;;;;5.00;1.00;;;;;;;;;;4962817;28;20054;-78
2024/01/23 06:01:53;;;;;;;10.00;1.50;;;;;;;;;;4993179;28;20580;-78
2024/01/23 06:04:19;;;;;;;6.28;1.10;;;;;;;;;;4981208;28;20193;-78
2024/01/23 06:06:47;;;;;;;3.55;0.85;;;;;;;;;;4977096;28;20473;-78
2024/01/23 06:09:14;;;;;;;3.70;0.90;;;;;;;;;;4980671;28;20104;-78
2024/01/23 06:11:40;;;;;;;8.00;1.15;;;;;;;;;;4996921;28;20092;-78
2024/01/23 06:14:08;;;;;;;5.15;0.80;;;;;;;;;;4995179;28;20058;-78
2024/01/23 06:16:34;;;;;;;7.55;1.05;;;;;;;;;;4974725;28;20104;-77
2024/01/23 06:19:01;;;;;;;8.90;1.35;;;;;;;;;;4957194;28;20059;-77
2024/01/23 06:21:28;;;;;;;5.88;1.08;;;;;;;;;;4959185;28;20046;-77
2024/01/23 06:23:55;;;;;;;9.10;1.27;;;;;;;;;;5007553;28;20470;-77
2024/01/23 06:26:25;;;;;;;4.68;0.90;;;;;;;;;;4991691;28;20125;-77
2024/01/23 06:28:52;;;;;;;3.50;0.98;;;;;;;;;;4989374;28;20050;-77
2024/01/23 06:31:25;;;;;;;9.20;1.10;;;;;;;;;;4964195;28;20077;-78
2024/01/23 06:33:52;;;;;;;4.40;1.02;;;;;;;;;;4991970;28;20066;-77
2024/01/23 06:36:19;;;;;;;9.73;1.33;;;;;;;;;;4992110;28;20491;-77
2024/01/23 06:38:46;;;;;;;6.30;1.17;;;;;;;;;;4960741;28;20077;-77
2024/01/23 06:41:13;;;;;;;8.52;1.08;;;;;;;;;;4984113;28;20078;-78
2024/01/23 06:43:40;;;;;;;3.60;0.75;;;;;;;;;;4979610;28;20057;-78
2024/01/23 06:46:07;;;;;;;7.20;1.50;;;;;;;;;;4978645;28;20084;-77
2024/01/23 06:48:34;;;;;;;4.93;0.95;;;;;;;;;;4983049;28;20058;-78
2024/01/23 06:51:01;;;;;;;4.28;1.33;;;;;;;;;;4999040;28;20121;-78
2024/01/23 06:53:27;;;;;;;4.97;1.20;;;;;;;;;;4972780;28;20062;-77
2024/01/23 06:55:54;;;;;;;3.40;1.30;;;;;;;;;;4991378;28;20050;-78
2024/01/23 06:58:21;;;;;;;2.72;0.90;;;;;;;;;;4970012;28;20105;-82
2024/01/23 07:00:48;;;;;;;4.18;0.90;;;;;;;;;;4982196;28;20081;-78
2024/01/23 07:03:15;;;;;;;7.47;1.00;;;;;;;;;;4988785;28;21158;-81
2024/01/23 07:05:46;;;;;;;7.18;1.52;;;;;;;;;;5005275;28;20077;-79
2024/01/23 07:08:13;;;;;;;6.28;1.33;;;;;;;;;;5003399;28;20089;-79
2024/01/23 07:10:40;;;;;;;3.88;0.80;;;;;;;;;;4987860;28;20085;-80
2024/01/23 07:13:07;;;;;;;4.78;1.00;;;;;;;;;;4973563;28;20062;-79
2024/01/23 07:15:33;;;;;;;6.15;1.23;;;;;;;;;;4963730;28;20062;-79
2024/01/23 07:18:00;;;;;;;5.65;0.88;;;;;;;;;;5000288;28;20046;-80
2024/01/23 07:20:27;;;;;;;4.45;1.33;;;;;;;;;;4984871;28;20058;-78
2024/01/23 07:22:54;;;;;;;5.50;1.02;;;;;;;;;;4994640;28;20096;-79
2024/01/23 07:25:21;;;;;;;4.55;1.00;;;;;;;;;;5001370;28;20145;-76
2024/01/23 07:27:47;;;;;;;1.95;1.20;;;;;;;;;;4979954;28;20055;-78
2024/01/23 07:30:14;;;;;;;6.00;1.15;;;;;;;;;;4989579;28;20058;-77
2024/01/23 07:32:42;;;;;;;3.28;0.80;;;;;;;;;;4990024;28;20054;-79
2024/01/23 07:35:10;;;;;;;4.72;0.77;;;;;;;;;;4987887;28;20092;-76
2024/01/23 07:37:36;;;;;;;7.50;1.75;;;;;;;;;;4987977;28;20045;-77
2024/01/23 07:40:04;;;;;;;4.65;1.35;;;;;;;;;;5018874;28;20085;-78
2024/01/23 07:42:30;;;;;;;7.78;1.10;;;;;;;;;;5003520;28;20458;-78
2024/01/23 07:44:57;;;;;;;7.22;1.48;;;;;;;;;;5003079;28;20093;-79
2024/01/23 07:47:24;;;;;;;7.18;2.17;;;;;;;;;;5002086;28;20056;-78
2024/01/23 07:49:50;;;;;;;3.53;0.93;;;;;;;;;;5002950;28;20046;-78
2024/01/23 07:52:19;;;;;;;7.20;1.38;;;;;;;;;;4984619;28;20109;-78
2024/01/23 07:54:46;;;;;;;6.95;1.42;;;;;;;;;;4983458;28;20054;-78
2024/01/23 07:57:13;;;;;;;8.07;1.13;;;;;;;;;;5003299;28;20054;-77
2024/01/23 07:59:40;;;;;;;10.65;1.98;;;;;;;;;;4985629;28;20113;-77
2024/01/23 08:02:07;;;;;;;7.18;1.70;;;;;;;;;;5002032;28;20054;-77
2024/01/23 08:04:33;;;;;;;4.88;1.55;;;;;;;;;;4986683;28;20065;-79
2024/01/23 08:07:00;;;;;;;10.50;1.75;;;;;;;;;;4984940;28;20058;-82
2024/01/23 08:09:27;;;;;;;8.27;1.45;;;;;;;;;;4979103;28;20046;-81
2024/01/23 08:11:54;;;;;;;5.30;1.40;;;;;;;;;;4978913;28;20096;-78
2024/01/23 08:14:22;;;;;;;8.40;1.90;;;;;;;;;;4990782;28;20058;-79
2024/01/23 08:16:50;;;;;;;6.85;1.50;;;;;;;;;;4980222;28;20139;-81
2024/01/23 08:19:17;;;;;;;2.33;0.90;;;;;;;;;;4977502;28;20550;-83
2024/01/23 08:21:45;;;;;;;3.75;1.13;;;;;;;;;;4982764;28;20054;-79
2024/01/23 08:24:12;;;;;;;2.38;0.90;;;;;;;;;;4997778;28;20050;-77
2024/01/23 08:26:39;;;;;;;4.45;1.15;;;;;;;;;;4965815;28;20050;-77
2024/01/23 08:29:07;;;;;;;6.68;0.88;;;;;;;;;;4976035;28;20468;-77
2024/01/23 08:31:34;;;;;;;3.97;1.17;;;;;;;;;;4991055;28;20406;-78
2024/01/23 08:34:00;;;;;;;4.47;1.60;;;;;;;;;;4984606;28;20215;-79
2024/01/23 08:36:27;;;;;;;3.45;1.10;;;;;;;;;;4982040;28;20042;-78
2024/01/23 08:38:54;;;;;;;3.85;1.70;;;;;;;;;;4998407;28;20046;-77
2024/01/23 08:41:21;;;;;;;3.83;0.63;;;;;;;;;;4979372;28;20054;-77
2024/01/23 08:43:49;;;;;;;2.47;0.88;;;;;;;;;;4964041;28;20060;-77
2024/01/23 08:46:19;;;;;;;2.90;1.20;;;;;;;;;;4996257;28;20140;-77
2024/01/23 08:48:45;;;;;;;6.05;1.15;;;;;;;;;;4997659;28;20502;-77
2024/01/23 08:51:13;;;;;;;10.45;1.00;;;;;;;;;;5010689;28;20108;-77
2024/01/23 08:53:41;;;;;;;7.15;1.45;;;;;;;;;;5011583;28;20046;-77
2024/01/23 08:56:08;;;;;;;4.03;0.75;;;;;;;;;;4991791;28;20474;-79
2024/01/23 08:58:34;;;;;;;2.45;0.95;;;;;;;;;;4985317;28;20087;-77
2024/01/23 09:01:01;;;;;;;5.60;1.00;;;;;;;;;;4965635;28;20077;-78
2024/01/23 09:03:28;;;;;;;7.82;1.17;;;;;;;;;;4982997;28;20580;-78
2024/01/23 09:05:55;;;;;;;4.93;1.10;;;;;;;;;;4980486;28;20058;-79
2024/01/23 09:08:22;;;;;;;6.53;1.52;;;;;;;;;;4997774;28;20105;-78
2024/01/23 09:10:49;;;;;;;1.92;1.02;;;;;;;;;;4998320;28;20050;-79
2024/01/23 09:13:18;;;;;;;5.78;1.63;;;;;;;;;;4964378;28;20058;-78
2024/01/23 09:15:45;;;;;;;6.32;1.30;;;;;;;;;;4983835;28;20457;-79
2024/01/23 09:18:12;;;;;;;4.28;1.58;;;;;;;;;;4985832;28;20118;-80
2024/01/23 09:20:39;;;;;;;6.78;1.27;;;;;;;;;;4985330;28;20046;-78
2024/01/23 09:23:06;;;;;;;6.13;1.42;;;;;;;;;;5001328;28;20056;-78
2024/01/23 09:25:32;;;;;;;6.30;1.20;;;;;;;;;;4984774;28;20062;-78
2024/01/23 09:27:59;;;;;;;5.63;1.35;;;;;;;;;;4994544;28;20502;-77
2024/01/23 09:30:26;;;;;;;4.68;1.08;;;;;;;;;;4995003;28;20061;-78
2024/01/23 09:32:54;;;;;;;7.00;1.20;;;;;;;;;;4989145;28;20054;-77
2024/01/23 09:35:22;;;;;;;3.53;1.30;;;;;;;;;;4995678;28;20069;-78
2024/01/23 09:37:49;;;;;;;4.70;1.40;;;;;;;;;;5010509;28;20081;-78
2024/01/23 09:40:16;;;;;;;3.53;0.90;;;;;;;;;;4978323;28;20062;-78
2024/01/23 09:42:43;;;;;;;8.45;1.90;;;;;;;;;;4990155;28;20054;-78
2024/01/23 09:45:17;;;;;;;5.38;1.13;;;;;;;;;;4980169;28;20050;-78
2024/01/23 09:47:48;;;;;;;5.63;1.40;;;;;;;;;;4989904;28;20109;-77
2024/01/23 09:50:17;;;;;;;5.30;0.95;;;;;;;;;;5006619;28;20061;-77
2024/01/23 09:52:46;;;;;;;3.72;0.90;;;;;;;;;;4944461;28;20050;-77
2024/01/23 09:55:13;;;;;;;3.50;0.68;;;;;;;;;;4972391;28;20505;-76
2024/01/23 09:57:45;;;;;;;5.97;0.90;;;;;;;;;;4959142;28;20078;-76
2024/01/23 10:00:12;;;;;;;4.68;1.00;;;;;;;;;;4995587;28;20056;-77
2024/01/23 10:02:40;;;;;;;3.45;0.88;;;;;;;;;;4993102;28;20039;-76
2024/01/23 10:05:08;;;;;;;3.50;0.65;;;;;;;;;;4992586;28;20100;-76
2024/01/23 10:07:36;;;;;;;4.28;1.00;;;;;;;;;;4982017;28;20064;-77
2024/01/23 10:10:13;;;;;;;3.72;0.90;;;;;;;;;;4985054;28;20529;-76
2024/01/23 10:12:41;;;;;;;2.35;0.90;;;;;;;;;;4977437;28;20046;-77
2024/01/23 10:15:13;;;;;;;3.28;0.75;;;;;;;;;;4978416;28;20078;-77
2024/01/23 10:17:40;;;;;;;6.53;0.80;;;;;;;;;;4961095;28;20054;-77
2024/01/23 10:20:08;;;;;;;3.65;1.50;;;;;;;;;;4975971;28;20058;-77
2024/01/23 10:22:35;;;;;;;2.97;0.55;;;;;;;;;;4988761;28;20057;-77
2024/01/23 10:25:06;;;;;;;2.97;0.57;;;;;;;;;;4992543;28;20054;-77
2024/01/23 10:27:35;;;;;;;3.17;0.52;;;;;;;;;;4960307;28;20046;-78
2024/01/23 10:30:03;;;;;;;2.22;0.80;;;;;;;;;;4986961;28;20062;-77
2024/01/23 10:32:33;;;;;;;3.47;0.85;;;;;;;;;;4974643;28;20114;-77
2024/01/23 10:34:59;;;;;;;3.92;0.80;;;;;;;;;;4993730;28;20054;-77
2024/01/23 10:37:26;;;;;;;2.20;0.90;;;;;;;;;;4984913;28;20089;-76
2024/01/23 10:39:53;;;;;;;3.83;0.85;;;;;;;;;;4988367;28;20133;-77
2024/01/23 10:42:20;;;;;;;3.03;1.05;;;;;;;;;;4980533;28;20077;-77
2024/01/23 10:44:48;;;;;;;3.50;1.33;;;;;;;;;;5015295;28;20073;-77
2024/01/23 10:47:16;;;;;;;3.40;0.75;;;;;;;;;;4965401;28;20498;-77
2024/01/23 10:49:43;;;;;;;2.97;0.60;;;;;;;;;;4984340;28;20046;-78
2024/01/23 10:52:18;;;;;;;5.05;0.90;;;;;;;;;;4972364;28;20056;-84
2024/01/23 10:54:46;;;;;;;5.38;0.98;;;;;;;;;;4968877;28;20534;-78
2024/01/23 10:57:23;;;;;;;3.28;0.93;;;;;;;;;;5005742;28;20057;-79
2024/01/23 10:59:51;;;;;;;3.58;1.05;;;;;;;;;;4981811;28;20076;-78
2024/01/23 11:02:44;;;;;;;3.97;1.10;;;;;;;;;;4990187;28;20038;-80
2024/01/23 11:05:11;;;;;;;4.97;1.20;;;;;;;;;;5019331;28;20129;-78
2024/01/23 11:07:46;;;;;;;6.85;1.60;;;;;;;;;;4991132;28;20085;-79
2024/01/23 11:10:28;;;;;;;3.35;0.70;;;;;;;;;;4986937;28;20050;-78
2024/01/23 11:13:00;;;;;;;;;;;;;;;;;;5001937;28;20600;-77
2024/01/23 11:15:26;;;;;;;5.88;1.50;;;;;;;;;;4997816;28;19925;-77
2024/01/23 11:17:53;;;;;;;4.63;1.52;;;;;;;;;;4989931;28;20054;-78
2024/01/23 11:20:20;;;;;;;5.55;1.70;;;;;;;;;;4971952;28;20078;-79
2024/01/23 11:22:48;;;;;;;4.55;0.82;;;;;;;;;;5021581;28;20077;-79
2024/01/23 11:25:17;;;;;;;9.77;1.25;;;;;;;;;;5001261;28;20254;-79
2024/01/23 11:27:47;;;;;;;6.03;1.63;;;;;;;;;;4987109;28;20050;-77
2024/01/23 11:30:14;;;;;;;7.20;1.55;;;;;;;;;;4962060;28;20049;-80
2024/01/23 11:32:41;;;;;;;8.05;1.70;;;;;;;;;;4986199;28;20074;-79
2024/01/23 11:35:18;;;;;;;12.18;1.73;;;;;;;;;;5000376;28;20073;-80
2024/01/23 11:37:50;;;;;;;11.50;1.73;;;;;;;;;;4986873;28;20065;-80
2024/01/23 11:40:34;;;;;;;5.55;1.40;;;;;;;;;;5000926;28;20047;-80
2024/01/23 11:43:06;;;;;;;9.48;1.50;;;;;;;;;;4997451;28;20058;-78
2024/01/23 11:45:35;;;;;;;9.93;1.75;;;;;;;;;;5002097;28;20146;-78
2024/01/23 11:48:04;;;;;;;8.60;2.33;;;;;;;;;;5000455;28;20568;-80
2024/01/23 11:50:35;;;;;;;7.07;1.55;;;;;;;;;;4984648;28;20173;-80
2024/01/23 11:53:03;;;;;;;8.55;1.60;;;;;;;;;;4985421;28;20092;-80
2024/01/23 11:55:35;;;;;;;9.43;1.70;;;;;;;;;;4968316;28;20051;-79
2024/01/23 11:58:02;;;;;;;6.43;1.70;;;;;;;;;;5005267;28;20077;-79
2024/01/23 12:00:28;;;;;;;8.43;0.90;;;;;;;;;;4983176;28;20059;-79
2024/01/23 12:02:55;;;;;;;6.28;1.55;;;;;;;;;;5019943;28;20058;-79
2024/01/23 12:05:22;;;;;;;7.25;1.55;;;;;;;;;;4968442;28;20138;-79
2024/01/23 12:07:49;;;;;;;8.25;2.00;;;;;;;;;;5022771;28;20300;-81
2024/01/23 12:10:19;;;;;;;6.47;1.30;;;;;;;;;;4984000;28;20058;-81
2024/01/23 12:12:50;;;;;;;11.63;2.25;;;;;;;;;;4986470;28;20055;-80
2024/01/23 12:15:17;;;;;;;8.13;1.88;;;;;;;;;;4989457;28;20486;-80
2024/01/23 12:17:46;;;;;;;7.03;1.83;;;;;;;;;;4987673;28;20061;-80
2024/01/23 12:20:14;;;;;;;10.93;1.85;;;;;;;;;;4989536;28;20050;-80
2024/01/23 12:22:41;;;;;;;11.98;2.15;;;;;;;;;;4991347;28;20109;-81
2024/01/23 12:25:10;;;;;;;7.18;1.88;;;;;;;;;;5021986;28;20046;-78
2024/01/23 12:27:37;;;;;;;9.23;1.48;;;;;;;;;;4982487;28;20051;-78
2024/01/23 12:30:05;;;;;;;8.95;2.45;;;;;;;;;;5024719;28;20050;-78
2024/01/23 12:32:32;;;;;;;6.65;1.30;;;;;;;;;;5004709;28;20077;-79
2024/01/23 12:34:59;;;;;;;7.30;1.67;;;;;;;;;;4989793;28;20461;-77
2024/01/23 12:37:30;;;;;;;6.28;1.38;;;;;;;;;;4992050;28;20660;-78
2024/01/23 12:40:07;;;;;;;6.40;1.30;;;;;;;;;;4984621;28;20072;-78
2024/01/23 12:42:41;;;;;;;4.28;1.00;;;;;;;;;;4977097;28;20046;-78
2024/01/23 12:45:13;;;;;;;6.47;1.30;;;;;;;;;;5003487;28;20073;-77
2024/01/23 12:47:41;;;;;;;8.57;2.03;;;;;;;;;;4992821;28;20050;-79
2024/01/23 12:50:20;;;;;;;10.93;1.30;;;;;;;;;;4977065;28;20074;-79
2024/01/23 12:52:47;;;;;;;5.55;1.73;;;;;;;;;;5005427;28;20478;-78
2024/01/23 12:55:15;;;;;;;3.78;1.13;;;;;;;;;;5002494;28;20054;-80
2024/01/23 12:57:44;;;;;;;4.88;1.25;;;;;;;;;;4977417;28;20059;-78
2024/01/23 13:00:15;;;;;;;5.68;1.70;;;;;;;;;;5009913;28;20050;-79
2024/01/23 13:02:43;;;;;;;19.85;1.95;;;;;;;;;;4988032;28;20061;-79
2024/01/23 13:05:17;;;;;;;6.45;1.48;;;;;;;;;;4986166;28;20430;-78
2024/01/23 13:07:45;;;;;;;6.30;1.15;;;;;;;;;;5002264;28;20050;-78
2024/01/23 13:10:13;;;;;;;6.30;1.33;;;;;;;;;;5006210;28;20050;-78
2024/01/23 13:12:41;;;;;;;7.22;1.83;;;;;;;;;;4985201;28;20046;-78
2024/01/23 13:15:15;;;;;;;7.50;1.60;;;;;;;;;;4990687;28;20070;-78
2024/01/23 13:17:42;;;;;;;6.28;1.20;;;;;;;;;;5024151;28;20054;-78
2024/01/23 13:20:14;;;;;;;8.93;1.98;;;;;;;;;;4977503;28;20248;-79
2024/01/23 13:22:44;;;;;;;6.77;1.40;;;;;;;;;;4991420;28;20060;-78
2024/01/23 13:25:17;;;;;;;7.25;1.05;;;;;;;;;;4989882;28;20294;-78
2024/01/23 13:27:45;;;;;;;8.13;1.90;;;;;;;;;;4974373;28;21148;-82
2024/01/23 13:30:16;;;;;;;6.07;1.60;;;;;;;;;;4998931;28;20054;-80
2024/01/23 13:32:46;;;;;;;6.13;1.40;;;;;;;;;;4997549;28;20058;-81
2024/01/23 13:35:14;;;;;;;7.40;2.38;;;;;;;;;;4983431;28;20054;-78
2024/01/23 13:37:41;;;;;;;5.35;2.00;;;;;;;;;;5016525;28;20050;-78
2024/01/23 13:40:10;;;;;;;7.45;1.63;;;;;;;;;;4980540;28;20051;-79
2024/01/23 13:42:39;;;;;;;10.52;1.40;;;;;;;;;;5020575;28;20053;-79
2024/01/23 13:45:06;;;;;;;5.80;1.42;;;;;;;;;;4986052;28;20058;-78
2024/01/23 13:47:39;;;;;;;8.38;2.00;;;;;;;;;;4987178;28;20073;-78
2024/01/23 13:50:06;;;;;;;6.57;1.60;;;;;;;;;;4989840;28;20109;-79
2024/01/23 13:52:33;;;;;;;5.75;1.42;;;;;;;;;;5005216;28;20060;-78
2024/01/23 13:55:00;;;;;;;9.02;1.13;;;;;;;;;;4988802;28;20050;-78
2024/01/23 13:57:27;;;;;;;10.10;1.40;;;;;;;;;;5001392;28;20073;-79
2024/01/23 13:59:54;;;;;;;10.48;1.60;;;;;;;;;;4987247;28;20137;-78
2024/01/23 14:02:21;;;;;;;7.90;1.00;;;;;;;;;;5005524;28;20081;-79
2024/01/23 14:04:47;;;;;;;4.22;1.10;;;;;;;;;;5004859;28;20053;-79
2024/01/23 14:07:14;;;;;;;9.07;1.67;;;;;;;;;;4972820;28;20134;-79
2024/01/23 14:09:41;;;;;;;8.70;1.52;;;;;;;;;;4989272;28;20077;-78
2024/01/23 14:12:08;;;;;;;8.85;1.55;;;;;;;;;;4987743;28;20086;-79
2024/01/23 14:14:36;;;;;;;9.55;1.70;;;;;;;;;;4986783;28;20138;-79
2024/01/23 14:17:04;;;;;;;7.38;1.77;;;;;;;;;;5017694;28;20454;-82
2024/01/23 14:19:31;;;;;;;5.55;1.20;;;;;;;;;;4960823;28;20062;-77
2024/01/23 14:21:58;;;;;;;4.70;1.80;;;;;;;;;;4989353;28;20085;-78
2024/01/23 14:24:24;;;;;;;7.72;1.60;;;;;;;;;;4974769;28;20109;-79
2024/01/23 14:26:51;;;;;;;9.20;1.15;;;;;;;;;;4997841;28;20062;-82
2024/01/23 14:29:19;;;;;;;3.65;0.88;;;;;;;;;;4997643;28;20046;-78
2024/01/23 14:31:46;;;;;;;9.00;1.33;;;;;;;;;;5006137;28;20114;-78
2024/01/23 14:34:13;;;;;;;7.75;1.73;;;;;;;;;;5002372;28;20058;-78
2024/01/23 14:36:41;;;;;;;7.35;1.65;;;;;;;;;;4969314;28;20050;-79
2024/01/23 14:39:11;;;;;;;10.02;2.03;;;;;;;;;;4989616;28;20058;-78
2024/01/23 14:41:39;;;;;;;5.90;1.52;;;;;;;;;;4988820;28;20106;-79
2024/01/23 14:44:06;;;;;;;7.20;1.45;;;;;;;;;;5003224;28;20506;-79
2024/01/23 14:46:33;;;;;;;6.03;1.98;;;;;;;;;;5001564;28;20078;-78